createdAt,value
2018-06-14T00:00:29.069Z,24.39
2018-06-14T00:02:55.758Z,24.36
2018-06-14T00:05:22.403Z,24.38
2018-06-14T00:07:49.084Z,24.38
2018-06-14T00:10:15.734Z,24.36
2018-06-14T00:12:42.456Z,24.37
2018-06-14T00:15:09.104Z,24.35
2018-06-14T00:17:35.785Z,24.37
2018-06-14T00:20:02.421Z,24.37
2018-06-14T00:22:29.128Z,24.35
2018-06-14T00:24:55.783Z,24.34
2018-06-14T00:27:22.486Z,24.35
2018-06-14T00:29:49.162Z,24.33
2018-06-14T00:32:17.806Z,24.32
2018-06-14T00:34:44.534Z,24.30
2018-06-14T00:37:11.148Z,24.32
2018-06-14T00:39:37.869Z,24.31
2018-06-14T00:42:04.561Z,24.33
2018-06-14T00:44:31.271Z,24.27
2018-06-14T00:46:57.864Z,24.27
2018-06-14T00:49:24.586Z,24.27
2018-06-14T00:51:51.210Z,24.26
2018-06-14T00:54:17.906Z,24.24
2018-06-14T00:56:44.555Z,24.28
2018-06-14T00:59:11.209Z,24.24
2018-06-14T01:01:37.872Z,24.24
2018-06-14T01:04:04.558Z,24.27
2018-06-14T01:06:31.240Z,24.24
2018-06-14T01:08:57.922Z,24.18
2018-06-14T01:11:24.540Z,24.22
2018-06-14T01:13:51.290Z,24.19
2018-06-14T01:16:17.955Z,24.19
2018-06-14T01:18:44.651Z,24.16
2018-06-14T01:21:11.409Z,24.20
2018-06-14T01:23:38.063Z,24.17
2018-06-14T01:26:04.756Z,24.17
2018-06-14T01:28:31.477Z,24.17
2018-06-14T01:30:58.129Z,24.18
2018-06-14T01:33:24.800Z,24.16
2018-06-14T01:35:51.479Z,24.19
2018-06-14T01:38:18.176Z,24.14
2018-06-14T01:40:44.840Z,24.16
2018-06-14T01:43:11.648Z,24.12
2018-06-14T01:45:38.302Z,24.14
2018-06-14T01:48:04.954Z,24.11
2018-06-14T01:50:31.640Z,24.13
2018-06-14T01:52:58.285Z,24.12
2018-06-14T01:55:24.986Z,24.11
2018-06-14T01:57:51.654Z,24.12
2018-06-14T02:00:18.347Z,24.16
2018-06-14T02:02:44.986Z,24.09
2018-06-14T02:05:11.689Z,24.11
2018-06-14T02:07:38.395Z,24.08
2018-06-14T02:10:05.100Z,24.09
2018-06-14T02:12:31.773Z,24.09
2018-06-14T02:14:58.457Z,24.08
2018-06-14T02:17:25.115Z,24.09
2018-06-14T02:19:51.769Z,24.07
2018-06-14T02:22:18.504Z,24.06
2018-06-14T02:24:45.151Z,24.05
2018-06-14T02:27:11.815Z,24.09
2018-06-14T02:29:38.459Z,24.04
2018-06-14T02:32:05.109Z,24.07
2018-06-14T02:34:31.771Z,24.05
2018-06-14T02:36:58.448Z,24.01
2018-06-14T02:39:25.145Z,24.02
2018-06-14T02:41:51.779Z,24.02
2018-06-14T02:44:18.440Z,23.99
2018-06-14T02:46:45.093Z,24.02
2018-06-14T02:49:11.760Z,23.98
2018-06-14T02:51:38.449Z,24.01
2018-06-14T02:54:05.143Z,23.98
2018-06-14T02:56:31.877Z,23.98
2018-06-14T02:58:58.517Z,23.97
2018-06-14T03:01:25.180Z,23.94
2018-06-14T03:03:51.839Z,23.96
2018-06-14T03:06:18.484Z,23.96
2018-06-14T03:08:45.136Z,23.98
2018-06-14T03:11:11.812Z,23.92
2018-06-14T03:13:38.461Z,23.93
2018-06-14T03:16:05.116Z,23.99
2018-06-14T03:18:31.771Z,23.92
2018-06-14T03:20:58.427Z,23.86
2018-06-14T03:23:25.102Z,23.72
2018-06-14T03:25:51.731Z,23.79
2018-06-14T03:28:18.386Z,23.79
2018-06-14T03:30:45.073Z,23.85
2018-06-14T03:33:11.703Z,23.87
2018-06-14T03:35:38.355Z,23.87
2018-06-14T03:38:05.055Z,23.84
2018-06-14T03:40:31.690Z,23.82
2018-06-14T03:42:58.430Z,23.83
2018-06-14T03:45:25.129Z,23.81
2018-06-14T03:47:51.747Z,23.86
2018-06-14T03:50:18.425Z,23.86
2018-06-14T03:52:45.141Z,23.79
2018-06-14T03:55:11.764Z,23.80
2018-06-14T03:57:38.446Z,23.83
2018-06-14T04:00:05.105Z,23.92
2018-06-14T04:02:31.805Z,23.95
2018-06-14T04:04:58.426Z,24.01
2018-06-14T04:07:25.119Z,24.05
2018-06-14T04:09:51.745Z,24.14
2018-06-14T04:12:18.394Z,24.12
2018-06-14T04:14:45.074Z,24.11
2018-06-14T04:17:11.732Z,24.13
2018-06-14T04:19:38.404Z,24.17
2018-06-14T04:22:05.071Z,24.17
2018-06-14T04:24:31.747Z,24.06
2018-06-14T04:26:58.406Z,24.07
2018-06-14T04:29:25.112Z,24.12
2018-06-14T04:31:51.770Z,24.17
2018-06-14T04:34:18.391Z,24.22
2018-06-14T04:36:45.042Z,24.25
2018-06-14T04:39:11.719Z,24.28
2018-06-14T04:41:38.371Z,24.32
2018-06-14T04:44:05.032Z,24.33
2018-06-14T04:46:31.729Z,24.35
2018-06-14T04:48:58.359Z,24.39
2018-06-14T04:51:25.019Z,24.40
2018-06-14T04:53:51.699Z,24.48
2018-06-14T04:56:18.350Z,24.41
2018-06-14T04:58:45.049Z,24.49
2018-06-14T05:01:11.823Z,24.47
2018-06-14T05:03:38.520Z,24.41
2018-06-14T05:06:05.177Z,24.43
2018-06-14T05:08:31.805Z,24.47
2018-06-14T05:10:58.612Z,24.42
2018-06-14T05:13:25.274Z,24.44
2018-06-14T05:15:51.952Z,24.44
2018-06-14T05:18:18.621Z,24.45
2018-06-14T05:20:45.273Z,24.44
2018-06-14T05:23:11.947Z,24.52
2018-06-14T05:25:38.608Z,24.50
2018-06-14T05:28:05.266Z,24.55
2018-06-14T05:30:31.970Z,24.57
2018-06-14T05:32:58.593Z,24.58
2018-06-14T05:35:25.258Z,24.65
2018-06-14T05:37:51.908Z,24.68
2018-06-14T05:40:18.625Z,24.79
2018-06-14T05:42:45.286Z,24.82
2018-06-14T05:45:11.940Z,24.95
2018-06-14T05:47:39.953Z,25.05
2018-06-14T05:50:05.319Z,25.14
2018-06-14T05:52:32.016Z,25.18
2018-06-14T05:54:58.645Z,25.29
2018-06-14T05:57:25.431Z,25.30
2018-06-14T05:59:52.133Z,25.33
2018-06-14T06:02:18.761Z,25.33
2018-06-14T06:04:45.560Z,25.27
2018-06-14T06:07:12.232Z,25.25
2018-06-14T06:09:38.892Z,25.28
2018-06-14T06:12:05.573Z,25.31
2018-06-14T06:14:32.255Z,25.30
2018-06-14T06:16:58.918Z,25.33
2018-06-14T06:19:25.605Z,25.32
2018-06-14T06:21:52.298Z,25.32
2018-06-14T06:24:19.010Z,25.36
2018-06-14T06:26:45.677Z,25.28
2018-06-14T06:29:12.334Z,25.33
2018-06-14T06:31:39.024Z,25.34
2018-06-14T06:34:05.689Z,25.35
2018-06-14T06:36:32.355Z,25.29
2018-06-14T06:38:59.009Z,25.24
2018-06-14T06:41:25.689Z,25.28
2018-06-14T06:43:52.346Z,25.30
2018-06-14T06:46:19.036Z,25.29
2018-06-14T06:48:45.697Z,25.30
2018-06-14T06:51:12.376Z,25.32
2018-06-14T06:53:39.048Z,25.35
2018-06-14T06:56:05.668Z,25.35
2018-06-14T06:58:32.346Z,25.37
2018-06-14T07:00:59.008Z,25.41
2018-06-14T07:03:25.734Z,25.42
2018-06-14T07:05:52.461Z,25.42
2018-06-14T07:08:19.127Z,25.45
2018-06-14T07:10:45.770Z,25.43
2018-06-14T07:13:12.484Z,25.45
2018-06-14T07:15:39.098Z,25.45
2018-06-14T07:18:05.783Z,25.53
2018-06-14T07:20:32.419Z,25.49
2018-06-14T07:22:59.109Z,25.41
2018-06-14T07:25:25.827Z,25.40
2018-06-14T07:27:54.568Z,25.50
2018-06-14T07:30:21.538Z,25.57
2018-06-14T07:32:48.197Z,25.60
2018-06-14T07:35:14.901Z,25.57
2018-06-14T07:37:41.592Z,25.04
2018-06-14T07:40:08.270Z,25.11
2018-06-14T07:42:34.880Z,25.10
2018-06-14T07:45:01.550Z,25.23
2018-06-14T07:47:28.301Z,25.35
2018-06-14T07:49:54.966Z,25.40
2018-06-14T07:52:21.625Z,25.47
2018-06-14T07:54:49.274Z,25.52
2018-06-14T07:57:15.969Z,25.57
2018-06-14T07:59:42.641Z,25.59
2018-06-14T08:02:09.297Z,25.59
2018-06-14T08:04:35.953Z,25.60
2018-06-14T08:07:02.650Z,25.36
2018-06-14T08:09:29.341Z,24.96
2018-06-14T08:11:55.958Z,25.08
2018-06-14T08:14:22.663Z,25.21
2018-06-14T08:16:49.711Z,25.25
2018-06-14T08:19:16.448Z,25.30
2018-06-14T08:21:43.155Z,25.36
2018-06-14T08:24:09.859Z,25.42
2018-06-14T08:26:36.533Z,25.48
2018-06-14T08:29:03.185Z,25.55
2018-06-14T08:31:29.845Z,25.54
2018-06-14T08:33:56.512Z,25.47
2018-06-14T08:36:23.220Z,25.49
2018-06-14T08:38:50.291Z,25.58
2018-06-14T08:41:16.961Z,25.64
2018-06-14T08:43:43.628Z,25.70
2018-06-14T08:46:10.325Z,25.72
2018-06-14T08:48:36.983Z,25.74
2018-06-14T08:51:03.675Z,25.72
2018-06-14T08:53:30.339Z,25.57
2018-06-14T08:55:57.044Z,25.39
2018-06-14T08:58:23.712Z,25.39
2018-06-14T09:00:50.336Z,25.31
2018-06-14T09:03:16.997Z,25.37
2018-06-14T09:05:43.672Z,25.58
2018-06-14T09:08:10.376Z,25.59
2018-06-14T09:10:37.068Z,25.64
2018-06-14T09:13:03.732Z,25.68
2018-06-14T09:15:30.391Z,25.77
2018-06-14T09:17:57.058Z,25.69
2018-06-14T09:20:24.356Z,25.54
2018-06-14T09:22:51.065Z,25.21
2018-06-14T09:25:17.728Z,25.41
2018-06-14T09:27:44.351Z,25.45
2018-06-14T09:30:10.992Z,25.48
2018-06-14T09:32:37.649Z,25.53
2018-06-14T09:35:04.363Z,25.65
2018-06-14T09:37:31.023Z,25.67
2018-06-14T09:39:57.691Z,25.73
2018-06-14T09:42:24.360Z,25.65
2018-06-14T09:44:51.044Z,25.73
2018-06-14T09:47:17.753Z,25.82
2018-06-14T09:49:44.417Z,25.41
2018-06-14T09:52:11.078Z,25.34
2018-06-14T09:54:37.873Z,25.35
2018-06-14T09:57:04.545Z,25.39
2018-06-14T09:59:31.221Z,25.52
2018-06-14T10:01:57.989Z,25.56
2018-06-14T10:04:24.691Z,25.61
2018-06-14T10:06:51.403Z,25.56
2018-06-14T10:09:18.137Z,25.71
2018-06-14T10:11:44.822Z,25.72
2018-06-14T10:14:11.527Z,25.37
2018-06-14T10:16:38.196Z,25.52
2018-06-14T10:19:04.924Z,25.39
2018-06-14T10:21:31.619Z,25.34
2018-06-14T10:23:58.368Z,25.25
2018-06-14T10:26:25.057Z,25.31
2018-06-14T10:28:51.674Z,25.12
2018-06-14T10:31:18.343Z,25.10
2018-06-14T10:33:45.035Z,25.20
2018-06-14T10:36:11.714Z,25.26
2018-06-14T10:38:38.432Z,25.14
2018-06-14T10:41:05.095Z,25.24
2018-06-14T10:43:31.842Z,25.27
2018-06-14T10:45:58.450Z,25.18
2018-06-14T10:48:25.593Z,25.25
2018-06-14T10:50:52.256Z,25.29
2018-06-14T10:53:18.916Z,25.18
2018-06-14T10:55:45.601Z,25.31
2018-06-14T10:58:12.369Z,25.41
2018-06-14T11:00:39.083Z,25.39
2018-06-14T11:03:05.782Z,25.52
2018-06-14T11:05:32.609Z,25.50
2018-06-14T11:07:59.259Z,25.49
2018-06-14T11:10:25.951Z,25.61
2018-06-14T11:12:52.659Z,25.64
2018-06-14T11:15:19.311Z,25.73
2018-06-14T11:17:46.057Z,25.85
2018-06-14T11:20:12.889Z,25.78
2018-06-14T11:22:39.549Z,25.94
2018-06-14T11:25:06.247Z,25.86
2018-06-14T11:27:32.910Z,25.92
2018-06-14T11:29:59.677Z,25.99
2018-06-14T11:32:26.277Z,26.06
2018-06-14T11:34:52.975Z,25.80
2018-06-14T11:37:19.639Z,25.73
2018-06-14T11:39:46.286Z,25.68
2018-06-14T11:42:12.963Z,25.63
2018-06-14T11:44:39.932Z,25.64
2018-06-14T11:47:06.674Z,25.82
2018-06-14T11:49:33.351Z,25.91
2018-06-14T11:52:00.060Z,25.88
2018-06-14T11:54:26.778Z,26.05
2018-06-14T11:56:53.517Z,26.06
2018-06-14T11:59:20.184Z,26.01
2018-06-14T12:01:46.963Z,26.04
2018-06-14T12:04:13.656Z,26.13
2018-06-14T12:06:40.299Z,26.11
2018-06-14T12:09:06.960Z,25.93
2018-06-14T12:11:33.634Z,26.12
2018-06-14T12:14:00.347Z,26.08
2018-06-14T12:16:27.110Z,26.12
2018-06-14T12:18:53.799Z,26.04
2018-06-14T12:21:20.521Z,26.25
2018-06-14T12:23:47.162Z,26.05
2018-06-14T12:26:15.152Z,26.12
2018-06-14T12:28:40.581Z,26.18
2018-06-14T12:31:07.218Z,26.09
2018-06-14T12:33:33.999Z,26.33
2018-06-14T12:36:00.619Z,26.23
2018-06-14T12:38:27.278Z,25.97
2018-06-14T12:40:54.000Z,25.92
2018-06-14T12:43:20.733Z,25.90
2018-06-14T12:45:47.436Z,25.78
2018-06-14T12:48:14.111Z,25.71
2018-06-14T12:50:40.858Z,25.60
2018-06-14T12:53:07.532Z,25.70
2018-06-14T12:55:34.183Z,25.56
2018-06-14T12:58:00.901Z,25.56
2018-06-14T13:00:30.642Z,25.63
2018-06-14T13:02:57.291Z,25.78
2018-06-14T13:05:23.951Z,25.76
2018-06-14T13:07:50.629Z,25.76
2018-06-14T13:10:17.371Z,25.75
2018-06-14T13:12:44.067Z,25.57
2018-06-14T13:15:10.774Z,25.69
2018-06-14T13:17:37.580Z,25.68
2018-06-14T13:20:04.248Z,25.55
2018-06-14T13:22:30.975Z,25.55
2018-06-14T13:24:57.814Z,25.41
2018-06-14T13:27:24.556Z,25.62
2018-06-14T13:29:51.337Z,25.52
2018-06-14T13:32:18.030Z,25.39
2018-06-14T13:34:44.777Z,25.52
2018-06-14T13:37:11.444Z,25.60
2018-06-14T13:39:38.292Z,25.56
2018-06-14T13:42:04.977Z,25.52
2018-06-14T13:44:31.683Z,25.57
2018-06-14T13:46:58.367Z,25.34
2018-06-14T13:49:27.510Z,25.27
2018-06-14T13:51:54.197Z,25.44
2018-06-14T13:54:20.833Z,25.35
2018-06-14T13:56:47.503Z,25.09
2018-06-14T13:59:14.248Z,25.04
2018-06-14T14:01:40.897Z,25.11
2018-06-14T14:04:07.558Z,25.29
2018-06-14T14:06:34.306Z,25.10
2018-06-14T14:09:00.960Z,25.05
2018-06-14T14:11:27.701Z,25.11
2018-06-14T14:13:54.550Z,25.19
2018-06-14T14:16:21.215Z,25.06
2018-06-14T14:18:47.867Z,24.87
2018-06-14T14:21:14.570Z,25.10
2018-06-14T14:23:41.234Z,25.19
2018-06-14T14:26:07.964Z,25.39
2018-06-14T14:28:34.615Z,25.44
2018-06-14T14:31:01.294Z,25.57
2018-06-14T14:33:27.976Z,25.65
2018-06-14T14:35:54.668Z,25.71
2018-06-14T14:38:21.336Z,25.82
2018-06-14T14:40:48.039Z,25.91
2018-06-14T14:43:14.685Z,25.95
2018-06-14T14:45:41.355Z,26.00
2018-06-14T14:48:08.046Z,26.02
2018-06-14T14:50:34.884Z,26.09
2018-06-14T14:53:01.596Z,26.13
2018-06-14T14:55:28.212Z,26.10
2018-06-14T14:57:54.835Z,26.10
2018-06-14T15:00:21.545Z,25.97
2018-06-14T15:02:48.205Z,26.04
2018-06-14T15:05:14.919Z,26.05
2018-06-14T15:07:41.612Z,26.11
2018-06-14T15:10:08.309Z,26.09
2018-06-14T15:12:34.937Z,26.19
2018-06-14T15:15:01.675Z,26.02
2018-06-14T15:17:28.379Z,25.70
2018-06-14T15:19:55.015Z,25.68
2018-06-14T15:22:21.713Z,25.66
2018-06-14T15:24:48.533Z,25.76
2018-06-14T15:27:15.305Z,25.88
2018-06-14T15:29:41.938Z,25.90
2018-06-14T15:32:08.638Z,25.84
2018-06-14T15:34:35.302Z,25.91
2018-06-14T15:37:01.986Z,25.93
2018-06-14T15:39:28.676Z,25.88
2018-06-14T15:41:55.308Z,25.93
2018-06-14T15:44:21.966Z,25.98
2018-06-14T15:46:48.719Z,26.05
2018-06-14T15:49:15.365Z,26.01
2018-06-14T15:51:42.026Z,26.01
2018-06-14T15:54:08.719Z,25.99
2018-06-14T15:56:35.380Z,25.98
2018-06-14T15:59:02.016Z,26.00
2018-06-14T16:01:28.736Z,25.98
2018-06-14T16:03:55.407Z,25.95
2018-06-14T16:06:22.055Z,25.99
2018-06-14T16:08:48.729Z,25.96
2018-06-14T16:11:15.448Z,25.96
2018-06-14T16:13:42.243Z,25.99
2018-06-14T16:16:08.918Z,26.02
2018-06-14T16:18:35.542Z,26.00
2018-06-14T16:21:02.260Z,26.02
2018-06-14T16:23:28.920Z,25.99
2018-06-14T16:25:55.580Z,25.98
2018-06-14T16:28:22.236Z,25.97
2018-06-14T16:30:48.886Z,25.98
2018-06-14T16:33:15.546Z,25.92
2018-06-14T16:35:42.251Z,25.92
2018-06-14T16:38:08.902Z,25.95
2018-06-14T16:40:35.575Z,25.94
2018-06-14T16:43:02.399Z,25.90
2018-06-14T16:45:29.083Z,25.93
2018-06-14T16:47:55.709Z,25.95
2018-06-14T16:50:22.367Z,25.97
2018-06-14T16:52:49.035Z,25.94
2018-06-14T16:55:15.710Z,25.98
2018-06-14T16:57:42.473Z,25.98
2018-06-14T17:00:09.192Z,25.96
2018-06-14T17:02:35.816Z,26.00
2018-06-14T17:05:02.554Z,25.91
2018-06-14T17:07:29.159Z,25.97
2018-06-14T17:09:55.848Z,25.92
2018-06-14T17:12:22.539Z,25.99
2018-06-14T17:14:49.217Z,25.87
2018-06-14T17:17:15.926Z,25.92
2018-06-14T17:19:42.573Z,25.91
2018-06-14T17:22:09.223Z,25.86
2018-06-14T17:24:35.919Z,25.86
2018-06-14T17:27:02.562Z,25.84
2018-06-14T17:29:32.474Z,25.81
2018-06-14T17:31:59.094Z,25.79
2018-06-14T17:34:25.782Z,25.81
2018-06-14T17:36:52.421Z,25.75
2018-06-14T17:39:19.082Z,25.76
2018-06-14T17:41:45.780Z,25.68
2018-06-14T17:44:12.446Z,25.74
2018-06-14T17:46:39.182Z,25.70
2018-06-14T17:49:05.833Z,25.69
2018-06-14T17:51:32.470Z,25.66
2018-06-14T17:53:59.173Z,25.66
2018-06-14T17:56:25.915Z,25.65
2018-06-14T17:58:52.545Z,25.61
2018-06-14T18:01:19.232Z,25.64
2018-06-14T18:03:45.916Z,25.56
2018-06-14T18:06:12.610Z,25.60
2018-06-14T18:08:39.316Z,25.58
2018-06-14T18:11:05.926Z,25.54
2018-06-14T18:13:32.625Z,25.58
2018-06-14T18:15:59.291Z,25.57
2018-06-14T18:18:25.954Z,25.56
2018-06-14T18:20:52.611Z,25.56
2018-06-14T18:23:19.276Z,25.54
2018-06-14T18:25:45.980Z,25.52
2018-06-14T18:28:12.660Z,25.50
2018-06-14T18:30:39.291Z,25.48
2018-06-14T18:33:06.029Z,25.50
2018-06-14T18:35:32.646Z,25.53
2018-06-14T18:37:59.370Z,25.49
2018-06-14T18:40:26.083Z,25.48
2018-06-14T18:42:52.748Z,25.43
2018-06-14T18:45:19.529Z,25.48
2018-06-14T18:47:46.097Z,25.46
2018-06-14T18:50:12.841Z,25.44
2018-06-14T18:52:39.516Z,25.42
2018-06-14T18:55:06.176Z,25.42
2018-06-14T18:57:32.818Z,25.38
2018-06-14T18:59:59.601Z,25.41
2018-06-14T19:02:26.247Z,25.40
2018-06-14T19:04:52.942Z,25.38
2018-06-14T19:07:19.668Z,25.36
2018-06-14T19:09:46.356Z,25.37
2018-06-14T19:12:13.071Z,25.35
2018-06-14T19:14:39.726Z,25.33
2018-06-14T19:17:06.486Z,25.34
2018-06-14T19:19:33.132Z,25.34
2018-06-14T19:21:59.767Z,25.34
2018-06-14T19:24:26.449Z,25.31
2018-06-14T19:26:53.078Z,25.31
2018-06-14T19:29:19.755Z,25.31
2018-06-14T19:31:46.431Z,25.31
2018-06-14T19:34:13.143Z,25.29
2018-06-14T19:36:39.827Z,25.28
2018-06-14T19:39:06.478Z,25.27
2018-06-14T19:41:33.085Z,25.31
2018-06-14T19:43:59.759Z,25.28
2018-06-14T19:46:26.472Z,25.27
2018-06-14T19:48:53.231Z,25.25
2018-06-14T19:51:19.855Z,25.26
2018-06-14T19:53:46.512Z,25.23
2018-06-14T19:56:13.209Z,25.23
2018-06-14T19:58:39.866Z,25.22
2018-06-14T20:01:06.651Z,25.21
2018-06-14T20:03:33.224Z,25.20
2018-06-14T20:05:59.894Z,25.19
2018-06-14T20:08:26.541Z,25.19
2018-06-14T20:10:53.243Z,25.18
2018-06-14T20:13:19.930Z,25.20
2018-06-14T20:15:46.609Z,25.16
2018-06-14T20:18:13.281Z,25.15
2018-06-14T20:20:39.979Z,25.14
2018-06-14T20:23:06.600Z,25.16
2018-06-14T20:25:33.310Z,25.14
2018-06-14T20:28:00.009Z,25.14
2018-06-14T20:30:26.680Z,25.13
2018-06-14T20:32:53.329Z,25.12
2018-06-14T20:35:20.052Z,25.10
2018-06-14T20:37:46.724Z,25.11
2018-06-14T20:40:13.337Z,25.08
2018-06-14T20:42:40.010Z,25.09
2018-06-14T20:45:06.656Z,25.03
2018-06-14T20:47:33.313Z,25.06
2018-06-14T20:49:59.971Z,25.03
2018-06-14T20:52:26.635Z,25.05
2018-06-14T20:54:53.372Z,25.04
2018-06-14T20:57:20.003Z,25.00
2018-06-14T20:59:46.660Z,24.98
2018-06-14T21:02:13.414Z,24.96
2018-06-14T21:04:40.031Z,25.03
2018-06-14T21:07:06.719Z,24.98
2018-06-14T21:09:33.355Z,24.98
2018-06-14T21:12:00.081Z,24.95
2018-06-14T21:14:26.716Z,24.95
2018-06-14T21:16:53.372Z,24.93
2018-06-14T21:19:20.027Z,24.94
2018-06-14T21:21:46.688Z,24.95
2018-06-14T21:24:13.399Z,24.89
2018-06-14T21:26:40.089Z,24.94
2018-06-14T21:29:06.803Z,24.90
2018-06-14T21:31:33.469Z,24.89
2018-06-14T21:34:00.131Z,24.89
2018-06-14T21:36:26.893Z,24.84
2018-06-14T21:38:53.564Z,24.84
2018-06-14T21:41:20.215Z,24.83
2018-06-14T21:43:46.940Z,24.84
2018-06-14T21:46:13.604Z,24.83
2018-06-14T21:48:40.331Z,24.81
2018-06-14T21:51:06.956Z,24.79
2018-06-14T21:53:33.712Z,24.77
2018-06-14T21:56:00.395Z,24.78
2018-06-14T21:58:27.055Z,24.77
2018-06-14T22:00:53.740Z,24.75
2018-06-14T22:03:20.510Z,24.74
2018-06-14T22:05:47.213Z,24.73
2018-06-14T22:08:13.823Z,24.71
2018-06-14T22:10:40.499Z,24.71
2018-06-14T22:13:07.182Z,24.71
2018-06-14T22:15:33.879Z,24.68
2018-06-14T22:18:00.504Z,24.67
2018-06-14T22:20:27.181Z,24.66
2018-06-14T22:22:53.853Z,24.66
2018-06-14T22:25:20.494Z,24.64
2018-06-14T22:27:47.247Z,24.66
2018-06-14T22:30:13.876Z,24.64
2018-06-14T22:32:40.542Z,24.61
2018-06-14T22:35:07.252Z,24.59
2018-06-14T22:37:34.013Z,24.60
2018-06-14T22:40:00.668Z,24.58
2018-06-14T22:42:27.359Z,24.56
2018-06-14T22:44:55.398Z,24.55
2018-06-14T22:47:20.681Z,24.53
2018-06-14T22:49:47.380Z,24.51
2018-06-14T22:52:14.039Z,24.51
2018-06-14T22:54:40.720Z,24.51
2018-06-14T22:57:07.362Z,24.50
2018-06-14T22:59:34.054Z,24.46
2018-06-14T23:02:00.735Z,24.48
2018-06-14T23:04:27.394Z,24.47
2018-06-14T23:06:54.090Z,24.45
2018-06-14T23:09:20.796Z,24.45
2018-06-14T23:11:47.459Z,24.43
2018-06-14T23:14:14.183Z,24.43
2018-06-14T23:16:41.827Z,24.43
2018-06-14T23:19:07.493Z,24.41
2018-06-14T23:21:34.215Z,24.40
2018-06-14T23:24:00.885Z,24.40
2018-06-14T23:26:27.570Z,24.36
2018-06-14T23:28:54.288Z,24.36
2018-06-14T23:31:20.901Z,24.33
2018-06-14T23:33:47.560Z,24.36
2018-06-14T23:36:14.246Z,24.33
2018-06-14T23:38:40.895Z,24.34
2018-06-14T23:41:07.584Z,24.31
2018-06-14T23:43:34.252Z,24.32
2018-06-14T23:46:00.947Z,24.30
2018-06-14T23:48:27.601Z,24.31
2018-06-14T23:50:54.238Z,24.27
2018-06-14T23:53:20.965Z,24.24
2018-06-14T23:55:47.579Z,24.26
2018-06-14T23:58:14.312Z,24.24
